首页
METAR-TAF:

METAR-TAF

机场 :

多倫多皮爾遜國際機場

多伦多, 安大略省, 加拿大

纬度: 43-40N, 经度: 079-38W, 海拔: 173米

当前天气观测

该预报发布于34分钟前的16:00 UTC
风速5节,风向西北
温度 6°C
湿度 75%
气压 1019 hPa
能見度: 16.1公里
多云层高于6200英尺
多云层高于7200英尺

METAR: CYYZ 201600Z 31005KT 10SM BKN062 BKN072 06/02 A3010 RMK SC5AC2 SLP199

时间: 11:34 (16:34 UTC)

预报

该预报发布于1小时和56分钟前的14:38 UTC
预报有效从20日的 15点(UTC)到 21日的 18点(UTC)
风速8节,风向西北
能見度: 10公里
少量云层高于600英尺
多云层高于6000英尺
短暂存在
从 20日的 15点(UTC)到 20日的 16点(UTC)
能見度: 8.0公里
轻雾
从 20日的 1700点(UTC)
风速8节,风向西北
能見度: 10公里
多云层高于3000英尺
从 21日的 0000点(UTC)
风速5节,风向西北
能見度: 10公里
多云层高于2000英尺
短暂存在
从 21日的 00点(UTC)到 21日的 05点(UTC)
多云层高于2500英尺
从 21日的 0500点(UTC)
风速6节,风向西北
能見度: 10公里
少量云层高于600英尺
散云层高于2000英尺
几率 30%
从 21日的 05点(UTC)到 21日的 13点(UTC)
能見度: 0.8公里
层高于200英尺
从 21日的 1300点(UTC)
风速3节,风向多变
能見度: 6.4公里
多云层高于600英尺
阴天层高于1500英尺
轻雾
从 21日的 1500点(UTC)
风速8节,风向南转南东
能見度: 10公里
多云层高于800英尺
阴天层高于1000英尺
从 21日的 1700点(UTC)
风速8节,风向,有时为18节阵风
能見度: 10公里
阴天层高于1200英尺

TAF: CYYZ 201438Z 2015/2118 31008KT P6SM FEW006 BKN060 TEMPO 2015/2016 5SM BR FM201700 31008KT P6SM BKN030 FM210000 32005KT P6SM BKN020 TEMPO 2100/2105 BKN025 FM210500 32006KT P6SM FEW006 SCT020 PROB30 2105/2113 1/2SM FG VV002 FM211300 VRB03KT 4SM BR BKN006 OVC015 FM211500 16008KT P6SM BKN008 OVC010 FM211700 17008G18KT P6SM OVC012 RMK NXT FCST BY 201800Z

超过4000个机场的气象观测和天气预报(METAR&TAF报告)。

可查询的气象台以黄色和红色小点在地图上表示。

将鼠标移到小点上方,可查看气象台名称。

然后点击查看天气观测和预报。

如需切换地图:点击带黑十字的绿色按钮放大地图;点击带横线的绿色按钮缩小地图;或者点击绿色箭头查看邻近地区的地图。


METAR-TAF: